Hovedside
METAR-TAF:

METAR-TAF

Lufthavner :

Sanderson Field Airport

Shelton, Washington, USA

breddegrad: 47-14-17N, lengdegrad: 123-08-27W, høyde over havet: 82 m

Gjeldene værobservasjon

Denne rapporten ble laget for 55 minutter siden, klokken 21:53 UTC
Vind 10 kt fra Sørvest
Temperatur 22°C
Luftfuktighet 53%
Trykk 1023 hPa
Sikt: 12.9 km
Skyfri himmel

METAR: KSHN 172153Z AUTO 23010KT 8SM CLR 22/12 A3021 RMK AO2 SLP231 T02170117

Tid: 15:48 (22:48 UTC)


TAF: fraværende

Værobservasjoner og værvarsel for over 4000 flyplasser (METAR- og TAF-rapporter).

Tilgjengelige stasjoner er representert av de røde og gule prikkene på kartet.

Hold musepekeren over prikken for å se navnet på stasjonen.

Klikk så for å se værobservasjoner og -varsler.

For å forandre kartet kan du klikke på den grønne knappen med svart kryss for å zoome inn, på den grønne knappen med strek for å zoome ut, eller på de grønne pilene for å se tilstøtende kart.


METAR-TAF: